createdAt,value
2022-12-31T00:00:55.125Z,13.23
2022-12-31T00:10:58.073Z,13.23
2022-12-31T00:21:06.221Z,13.28
2022-12-31T00:31:13.585Z,13.34
2022-12-31T00:41:19.459Z,13.30
2022-12-31T00:51:27.486Z,13.34
2022-12-31T01:01:33.830Z,13.24
2022-12-31T01:11:37.351Z,13.23
2022-12-31T01:21:43.516Z,13.17
2022-12-31T01:31:46.620Z,13.05
2022-12-31T01:41:50.978Z,13.04
2022-12-31T01:51:59.027Z,12.93
2022-12-31T02:02:03.718Z,12.95
2022-12-31T02:12:07.152Z,12.95
2022-12-31T02:22:22.830Z,12.99
2022-12-31T02:32:33.056Z,12.98
2022-12-31T02:42:35.993Z,12.93
2022-12-31T02:52:52.439Z,12.91
2022-12-31T03:02:56.807Z,12.87
2022-12-31T03:13:01.184Z,12.83
2022-12-31T03:23:07.156Z,12.74
2022-12-31T03:33:11.606Z,12.73
2022-12-31T03:43:14.969Z,12.70
2022-12-31T03:53:19.509Z,12.68
2022-12-31T04:03:22.528Z,12.67
2022-12-31T04:13:26.849Z,12.75
2022-12-31T04:23:30.037Z,13.00
2022-12-31T04:33:35.005Z,13.38
2022-12-31T04:43:37.967Z,13.90
2022-12-31T04:53:42.450Z,14.10
2022-12-31T05:03:45.417Z,14.38
2022-12-31T05:13:49.779Z,14.56
2022-12-31T05:23:52.946Z,14.69
2022-12-31T05:33:57.607Z,14.70
2022-12-31T05:44:00.387Z,14.63
2022-12-31T05:54:05.141Z,14.73
2022-12-31T06:04:08.108Z,14.93
2022-12-31T06:14:13.259Z,15.30
2022-12-31T06:24:16.234Z,15.47
2022-12-31T06:34:20.789Z,15.66
2022-12-31T06:44:23.557Z,15.92
2022-12-31T06:54:27.871Z,16.00
2022-12-31T07:05:02.016Z,16.04
2022-12-31T07:15:15.809Z,16.01
2022-12-31T07:25:20.551Z,16.09
2022-12-31T07:35:35.473Z,16.08
2022-12-31T07:45:47.740Z,16.06
2022-12-31T07:55:56.466Z,15.65
2022-12-31T08:06:12.111Z,15.57
2022-12-31T08:16:17.001Z,15.26
2022-12-31T08:26:28.896Z,15.27
2022-12-31T08:36:43.149Z,15.51
2022-12-31T08:46:57.254Z,15.49
2022-12-31T08:57:10.959Z,15.54
2022-12-31T09:07:17.355Z,15.59
2022-12-31T09:17:43.097Z,15.33
2022-12-31T09:27:54.708Z,14.97
2022-12-31T09:38:11.293Z,14.94
2022-12-31T09:48:42.442Z,14.99
2022-12-31T09:58:56.832Z,15.25
2022-12-31T10:09:15.901Z,15.53
2022-12-31T10:19:45.898Z,15.63
2022-12-31T10:29:57.833Z,15.67
2022-12-31T10:40:21.645Z,15.83
2022-12-31T10:50:56.138Z,16.06
2022-12-31T11:01:06.517Z,16.22
2022-12-31T11:11:28.480Z,16.30
2022-12-31T11:21:48.614Z,16.40
2022-12-31T11:32:05.487Z,16.55
2022-12-31T11:42:21.683Z,16.50
2022-12-31T11:52:47.807Z,16.23
2022-12-31T12:02:59.049Z,16.09
2022-12-31T12:13:02.103Z,15.90
2022-12-31T12:23:16.140Z,15.95
2022-12-31T12:33:21.053Z,15.79
2022-12-31T12:43:29.037Z,15.88
2022-12-31T12:53:44.929Z,16.05
2022-12-31T13:04:36.055Z,16.23
2022-12-31T13:14:49.150Z,16.40
2022-12-31T13:25:02.392Z,16.49
2022-12-31T13:35:23.343Z,16.47
2022-12-31T13:45:31.748Z,16.49
2022-12-31T13:55:41.326Z,16.54
2022-12-31T14:05:51.218Z,16.48
2022-12-31T14:16:08.322Z,16.51
2022-12-31T14:26:19.780Z,16.48
2022-12-31T14:36:39.635Z,16.42
2022-12-31T14:46:58.261Z,16.35
2022-12-31T14:57:11.173Z,16.42
2022-12-31T15:07:23.588Z,16.38
2022-12-31T15:17:38.075Z,16.38
2022-12-31T15:27:42.687Z,16.27
2022-12-31T15:37:47.327Z,16.17
2022-12-31T15:47:57.461Z,16.25
2022-12-31T15:58:06.143Z,16.14
2022-12-31T16:08:19.503Z,16.12
2022-12-31T16:18:23.863Z,16.11
2022-12-31T16:28:30.934Z,16.03
2022-12-31T16:38:36.828Z,15.99
2022-12-31T16:48:40.670Z,15.88
2022-12-31T16:58:46.403Z,15.86
2022-12-31T17:09:05.847Z,15.90
2022-12-31T17:19:32.092Z,15.91
2022-12-31T17:29:35.579Z,15.79
2022-12-31T17:39:49.092Z,15.69
2022-12-31T17:49:54.743Z,15.55
2022-12-31T17:59:59.133Z,15.42
2022-12-31T18:10:02.023Z,15.35
2022-12-31T18:20:07.133Z,15.29
2022-12-31T18:30:11.490Z,15.32
2022-12-31T18:40:15.989Z,15.30
2022-12-31T18:50:19.156Z,15.13
2022-12-31T19:00:23.685Z,15.18
2022-12-31T19:10:27.344Z,15.09
2022-12-31T19:20:32.185Z,15.11
2022-12-31T19:30:36.549Z,15.20
2022-12-31T19:40:41.399Z,15.28
2022-12-31T19:50:46.546Z,15.38
2022-12-31T20:00:56.835Z,15.54
2022-12-31T20:11:10.351Z,15.64
2022-12-31T20:21:17.956Z,15.80
2022-12-31T20:31:22.500Z,15.78
2022-12-31T20:41:27.328Z,15.95
2022-12-31T20:51:32.396Z,15.84
2022-12-31T21:02:11.617Z,15.87
2022-12-31T21:12:17.251Z,15.98
2022-12-31T21:22:23.081Z,16.00
2022-12-31T21:32:26.091Z,16.12
2022-12-31T21:42:30.510Z,16.14
2022-12-31T21:52:35.232Z,16.16
2022-12-31T22:02:59.252Z,16.12
2022-12-31T22:13:02.948Z,16.12
2022-12-31T22:23:09.349Z,16.15
2022-12-31T22:33:12.266Z,16.03
2022-12-31T22:43:16.696Z,16.01
2022-12-31T22:53:19.521Z,16.03
2022-12-31T23:03:23.973Z,16.27
2022-12-31T23:13:50.229Z,16.31
2022-12-31T23:23:55.745Z,16.35
2022-12-31T23:33:58.995Z,16.38
2022-12-31T23:44:03.345Z,16.47
2022-12-31T23:54:06.378Z,16.57
